Time;durP1;ratioP1;P1;durP2;ratioP2;P2;SDS_P1;SDS_P2;PMS_P1;PMS_P2;Temp;Humidity;BMP_temperature;BMP_pressure;BME280_temperature;BME280_humidity;BME280_pressure;Samples;Min_cycle;Max_cycle;Signal;HPM_P1;HPM_P2
2023/05/12 00:02:27;;;;;;;80.30;28.27;;;;;;;11.18;100.00;101714.28;10358174;28;20057;-70
2023/05/12 00:07:28;;;;;;;77.25;28.27;;;;;;;11.18;100.00;101711.53;10374127;28;20064;-70
2023/05/12 00:12:28;;;;;;;89.72;29.58;;;;;;;11.24;100.00;101716.09;10412362;28;20042;-70
2023/05/12 00:17:29;;;;;;;93.47;29.38;;;;;;;11.18;100.00;101706.84;10394422;28;20041;-70
2023/05/12 00:22:30;;;;;;;86.57;31.50;;;;;;;11.21;100.00;101709.13;10378856;28;20401;-71
2023/05/12 00:27:31;;;;;;;83.97;30.65;;;;;;;11.25;100.00;101704.81;10412420;28;20128;-70
2023/05/12 00:32:32;;;;;;;79.78;30.00;;;;;;;11.23;100.00;101697.88;10378575;28;20034;-70
2023/05/12 00:37:32;;;;;;;104.38;29.75;;;;;;;11.34;100.00;101716.34;10378061;28;20037;-71
2023/05/12 00:42:34;;;;;;;80.43;28.40;;;;;;;11.34;100.00;101713.56;10394306;28;20465;-70
2023/05/12 00:47:34;;;;;;;83.95;29.42;;;;;;;11.33;100.00;101714.66;10394221;28;20038;-71
2023/05/12 00:52:35;;;;;;;88.90;31.08;;;;;;;11.36;100.00;101719.69;10393778;28;20042;-71
2023/05/12 00:57:36;;;;;;;88.10;30.63;;;;;;;11.32;100.00;101705.53;10394441;28;20064;-68
2023/05/12 01:02:36;;;;;;;92.22;32.40;;;;;;;11.39;100.00;101713.72;10379609;28;25038;-70
2023/05/12 01:07:37;;;;;;;92.80;32.63;;;;;;;11.31;100.00;101709.38;10375503;28;20034;-71
2023/05/12 01:12:37;;;;;;;94.15;32.88;;;;;;;11.38;100.00;101717.53;10361438;28;20040;-70
2023/05/12 01:17:38;;;;;;;96.47;32.65;;;;;;;11.32;100.00;101699.19;10393749;28;20043;-71
2023/05/12 01:22:38;;;;;;;101.40;35.83;;;;;;;11.37;100.00;101704.84;10393742;28;20045;-70
2023/05/12 01:27:39;;;;;;;105.03;36.63;;;;;;;11.41;100.00;101711.56;10378698;28;20041;-71
2023/05/12 01:32:39;;;;;;;111.63;34.30;;;;;;;11.39;100.00;101712.84;10361077;28;20037;-71
2023/05/12 01:37:40;;;;;;;127.35;35.88;;;;;;;11.42;100.00;101713.22;10393332;28;20041;-71
2023/05/12 01:42:41;;;;;;;100.20;34.45;;;;;;;11.43;100.00;101717.66;10393499;28;20044;-69
2023/05/12 01:47:41;;;;;;;112.35;36.53;;;;;;;11.41;100.00;101725.34;10361631;28;20064;-70
2023/05/12 01:52:43;;;;;;;113.25;36.45;;;;;;;11.41;100.00;101727.22;10393107;28;20083;-70
2023/05/12 01:57:43;;;;;;;111.85;36.45;;;;;;;11.38;100.00;101733.25;10411757;28;20117;-71
2023/05/12 02:02:44;;;;;;;112.13;36.45;;;;;;;11.42;100.00;101734.44;10392745;28;20046;-70
2023/05/12 02:07:44;;;;;;;97.55;32.45;;;;;;;11.43;100.00;101742.47;10381172;28;20045;-70
2023/05/12 02:12:45;;;;;;;111.95;34.53;;;;;;;11.46;100.00;101744.75;10417944;28;20037;-70
2023/05/12 02:17:45;;;;;;;111.68;36.85;;;;;;;11.45;100.00;101742.22;10399553;28;20069;-70
2023/05/12 02:22:46;;;;;;;146.45;38.03;;;;;;;11.42;100.00;101746.31;10417852;28;20366;-70
2023/05/12 02:27:46;;;;;;;109.47;35.47;;;;;;;11.44;100.00;101746.91;10400907;28;20049;-70
2023/05/12 02:32:47;;;;;;;123.28;39.38;;;;;;;11.43;100.00;101758.16;10417004;28;20053;-70
2023/05/12 02:37:47;;;;;;;105.20;35.50;;;;;;;11.35;100.00;101756.63;10417106;28;20061;-70
2023/05/12 02:42:48;;;;;;;116.30;35.40;;;;;;;11.32;100.00;101751.56;10417756;28;20512;-71
2023/05/12 02:47:48;;;;;;;113.78;35.75;;;;;;;11.23;100.00;101753.00;10366849;28;20405;-70
2023/05/12 02:52:49;;;;;;;129.63;37.20;;;;;;;11.28;100.00;101764.97;10399028;28;20048;-70
2023/05/12 02:57:49;;;;;;;109.35;35.70;;;;;;;11.19;100.00;101766.41;10400224;28;20052;-70
2023/05/12 03:02:50;;;;;;;131.68;38.67;;;;;;;11.19;100.00;101779.38;10387718;28;20049;-71
2023/05/12 03:07:50;;;;;;;144.75;43.40;;;;;;;11.19;100.00;101784.88;10396305;28;20068;-71
2023/05/12 03:12:51;;;;;;;129.85;39.42;;;;;;;11.16;100.00;101769.63;10397739;28;20065;-71
2023/05/12 03:17:51;;;;;;;108.55;36.97;;;;;;;11.22;100.00;101801.75;10398213;28;20045;-70
2023/05/12 03:22:52;;;;;;;127.65;37.05;;;;;;;11.17;100.00;101749.28;10397115;28;20037;-71
2023/05/12 03:27:52;;;;;;;120.13;37.35;;;;;;;11.28;100.00;101764.16;10398426;28;20049;-70
2023/05/12 03:32:53;;;;;;;122.97;41.30;;;;;;;11.23;100.00;101766.78;10396145;28;20053;-70
2023/05/12 03:37:53;;;;;;;143.95;42.20;;;;;;;11.23;100.00;101770.38;10396452;28;20049;-71
2023/05/12 03:42:54;;;;;;;152.15;41.80;;;;;;;11.25;100.00;101772.91;10389626;28;20484;-71
2023/05/12 03:47:54;;;;;;;121.43;39.65;;;;;;;11.26;100.00;101769.88;10395914;28;20088;-70
2023/05/12 03:52:55;;;;;;;162.35;42.25;;;;;;;11.24;100.00;101772.03;10380399;28;20034;-70
2023/05/12 03:57:56;;;;;;;139.07;41.72;;;;;;;11.27;100.00;101776.25;10413318;28;20041;-71
2023/05/12 04:02:56;;;;;;;132.48;40.72;;;;;;;11.19;100.00;101765.59;10414767;28;20040;-70
2023/05/12 04:07:57;;;;;;;129.70;43.28;;;;;;;11.20;100.00;101772.75;10396629;28;20045;-71
2023/05/12 04:12:57;;;;;;;132.85;38.83;;;;;;;11.27;100.00;101779.84;10412831;28;20033;-70
2023/05/12 04:17:58;;;;;;;161.65;41.42;;;;;;;11.36;100.00;101777.59;10355877;28;20081;-71
2023/05/12 04:22:58;;;;;;;130.95;42.17;;;;;;;11.41;100.00;101776.88;10354395;28;20042;-70
2023/05/12 04:27:59;;;;;;;151.73;44.13;;;;;;;11.45;100.00;101778.06;10339714;28;20053;-71
2023/05/12 04:33:00;;;;;;;149.10;41.50;;;;;;;11.47;100.00;101785.06;10370738;28;20044;-71
2023/05/12 04:38:01;;;;;;;132.00;39.60;;;;;;;11.41;100.00;101780.47;10354260;28;20050;-71
2023/05/12 04:43:01;;;;;;;126.22;36.97;;;;;;;11.41;100.00;101798.91;10377268;28;20497;-71
2023/05/12 04:48:02;;;;;;;165.80;38.47;;;;;;;11.37;100.00;101803.22;10394229;28;20037;-72
2023/05/12 04:53:02;;;;;;;122.75;38.83;;;;;;;11.36;100.00;101796.06;10394744;28;20038;-69
2023/05/12 04:58:03;;;;;;;121.35;40.70;;;;;;;11.36;100.00;101804.31;10395824;28;25069;-72
2023/05/12 05:03:04;;;;;;;115.10;38.15;;;;;;;11.40;100.00;101811.88;10411331;28;20045;-71
2023/05/12 05:08:04;;;;;;;130.75;39.45;;;;;;;11.47;100.00;101817.28;10392570;28;20052;-71
2023/05/12 05:13:05;;;;;;;100.60;35.90;;;;;;;11.53;100.00;101824.59;10408836;28;20060;-71
2023/05/12 05:18:06;;;;;;;97.15;34.22;;;;;;;11.59;100.00;101828.34;10391165;28;20034;-71
2023/05/12 05:23:06;;;;;;;119.38;36.65;;;;;;;11.64;100.00;101831.22;10411593;28;20030;-71
2023/05/12 05:28:07;;;;;;;112.75;39.30;;;;;;;11.68;100.00;101818.66;10393886;28;20121;-71
2023/05/12 05:33:07;;;;;;;122.72;40.65;;;;;;;11.73;100.00;101826.19;10377777;28;20052;-72
2023/05/12 05:38:08;;;;;;;113.50;37.92;;;;;;;11.82;100.00;101850.41;10391950;28;20045;-71
2023/05/12 05:43:08;;;;;;;123.90;41.80;;;;;;;11.90;100.00;101840.97;10412343;28;20069;-72
2023/05/12 05:48:09;;;;;;;121.38;40.45;;;;;;;12.15;100.00;101849.00;10383504;28;20076;-71
2023/05/12 05:53:10;;;;;;;104.95;38.70;;;;;;;12.28;100.00;101857.06;10343133;28;20045;-71
2023/05/12 05:58:10;;;;;;;128.80;42.50;;;;;;;12.40;100.00;101861.72;10360280;28;20090;-72
2023/05/12 06:03:11;;;;;;;113.78;39.92;;;;;;;12.45;100.00;101857.16;10343414;28;20045;-72
2023/05/12 06:08:12;;;;;;;102.80;38.40;;;;;;;12.39;100.00;101851.75;10376288;28;20045;-71
2023/05/12 06:13:12;;;;;;;106.82;40.13;;;;;;;12.30;100.00;101841.09;10343942;28;20034;-71
2023/05/12 06:18:13;;;;;;;107.88;40.40;;;;;;;12.39;100.00;101865.56;10358079;28;20041;-70
2023/05/12 06:23:13;;;;;;;111.65;44.05;;;;;;;12.48;100.00;101875.16;10377931;28;20580;-70
2023/05/12 06:28:13;;;;;;;103.82;41.83;;;;;;;12.62;100.00;101886.78;10344294;28;21634;-71
2023/05/12 06:33:14;;;;;;;103.05;40.95;;;;;;;12.81;100.00;101892.97;10342818;28;20068;-71
2023/05/12 06:38:15;;;;;;;106.57;42.22;;;;;;;12.91;100.00;101884.91;10404557;28;20049;-71
2023/05/12 06:43:15;;;;;;;99.93;39.25;;;;;;;13.01;100.00;101898.94;10398888;28;20041;-71
2023/05/12 06:48:16;;;;;;;106.80;42.53;;;;;;;13.13;100.00;101908.03;10383003;28;20045;-72
2023/05/12 06:53:16;;;;;;;98.30;42.17;;;;;;;13.36;100.00;101914.56;10417055;28;20037;-71
2023/05/12 06:58:17;;;;;;;91.78;40.10;;;;;;;13.60;100.00;101904.25;10410807;28;20045;-72
2023/05/12 07:03:18;;;;;;;78.05;38.28;;;;;;;13.82;100.00;101898.78;10377291;28;20050;-71
2023/05/12 07:08:18;;;;;;;78.55;39.72;;;;;;;13.97;100.00;101902.91;10414528;28;20038;-72
2023/05/12 07:13:19;;;;;;;65.70;36.13;;;;;;;14.13;100.00;101904.81;10396594;28;20038;-71
2023/05/12 07:18:19;;;;;;;65.50;34.25;;;;;;;14.32;100.00;101894.28;10379189;28;20056;-71
2023/05/12 07:23:20;;;;;;;52.55;30.60;;;;;;;14.30;100.00;101899.25;10395780;28;20045;-72
2023/05/12 07:28:20;;;;;;;65.10;33.58;;;;;;;14.35;100.00;101890.19;10412646;28;20044;-71
2023/05/12 07:33:21;;;;;;;63.28;34.78;;;;;;;14.48;100.00;101904.50;10381061;28;20037;-71
2023/05/12 07:38:22;;;;;;;57.90;32.65;;;;;;;14.55;100.00;101904.31;10394548;28;20074;-71
2023/05/12 07:43:23;;;;;;;57.45;31.83;;;;;;;14.64;100.00;101905.59;10377224;28;20041;-71
2023/05/12 07:48:23;;;;;;;57.38;33.58;;;;;;;14.79;100.00;101904.94;10410424;28;20512;-71
2023/05/12 07:53:24;;;;;;;49.55;29.35;;;;;;;14.94;100.00;101895.97;10374935;28;20034;-70
2023/05/12 07:58:24;;;;;;;50.90;30.70;;;;;;;15.10;100.00;101888.69;10410588;28;20046;-71
2023/05/12 08:03:25;;;;;;;45.70;28.67;;;;;;;15.45;100.00;101896.56;10394055;28;20092;-71
2023/05/12 08:08:25;;;;;;;42.05;28.95;;;;;;;15.71;100.00;101892.09;10392797;28;21022;-71
2023/05/12 08:13:26;;;;;;;41.42;28.02;;;;;;;15.92;100.00;101887.56;10364915;28;20033;-71
2023/05/12 08:18:26;;;;;;;40.78;26.20;;;;;;;16.21;100.00;101898.34;10363832;28;20052;-71
2023/05/12 08:23:27;;;;;;;41.28;27.27;;;;;;;16.43;100.00;101897.34;10378424;28;20033;-70
2023/05/12 08:28:27;;;;;;;37.22;25.92;;;;;;;16.90;100.00;101904.84;10410915;28;20048;-71
2023/05/12 08:33:28;;;;;;;34.60;22.38;;;;;;;17.33;100.00;101911.94;10395467;28;20053;-71
2023/05/12 08:38:28;;;;;;;32.47;23.15;;;;;;;17.70;100.00;101907.28;10394930;28;20041;-71
2023/05/12 08:43:49;;;;;;;28.42;18.67;;;;;;;17.89;100.00;101927.94;10391140;28;20045;-71
2023/05/12 08:48:50;;;;;;;30.42;20.05;;;;;;;17.92;100.00;101924.59;10391960;28;20040;-71
2023/05/12 08:53:50;;;;;;;25.58;19.95;;;;;;;18.12;100.00;101911.75;10362661;28;20042;-71
2023/05/12 08:58:50;;;;;;;26.35;18.77;;;;;;;18.10;100.00;101908.41;10392927;28;20045;-71
2023/05/12 09:03:52;;;;;;;27.33;21.58;;;;;;;18.33;100.00;101918.13;10393315;28;20076;-72
2023/05/12 09:08:52;;;;;;;28.95;18.70;;;;;;;18.43;100.00;101925.66;10376550;28;20119;-71
2023/05/12 09:14:01;;;;;;;29.52;20.30;;;;;;;18.59;100.00;101921.72;10374640;28;20065;-71
2023/05/12 09:19:02;;;;;;;27.48;20.73;;;;;;;18.74;100.00;101916.06;10381097;28;20088;-71
2023/05/12 09:24:07;;;;;;;30.08;20.48;;;;;;;18.72;100.00;101915.53;10417648;28;20037;-72
2023/05/12 09:29:08;;;;;;;26.45;18.75;;;;;;;18.93;100.00;101898.75;10386816;28;20069;-71
2023/05/12 09:34:08;;;;;;;23.90;18.42;;;;;;;19.44;100.00;101918.00;10355120;28;20053;-70
2023/05/12 09:39:09;;;;;;;21.88;17.05;;;;;;;19.80;100.00;101919.75;10360200;28;20038;-71
2023/05/12 09:44:13;;;;;;;20.05;16.05;;;;;;;20.13;100.00;101918.91;10360054;28;20104;-71
2023/05/12 09:49:20;;;;;;;21.83;17.05;;;;;;;20.39;100.00;101920.63;10361107;28;20037;-71
2023/05/12 09:54:28;;;;;;;21.75;16.92;;;;;;;20.23;100.00;101926.34;10360030;28;20101;-71
2023/05/12 09:59:33;;;;;;;18.85;14.63;;;;;;;20.00;100.00;101913.16;10346082;28;20041;-71
2023/05/12 10:04:44;;;;;;;17.42;14.07;;;;;;;19.80;100.00;101920.56;10345266;28;20426;-71
2023/05/12 10:09:44;;;;;;;17.55;14.90;;;;;;;19.76;100.00;101880.38;10360726;28;20445;-71
2023/05/12 10:14:45;;;;;;;17.35;14.48;;;;;;;20.25;100.00;101920.47;10344971;28;20455;-70
2023/05/12 10:19:46;;;;;;;16.20;12.95;;;;;;;20.59;100.00;101926.03;10376866;28;20034;-71
2023/05/12 10:24:46;;;;;;;18.48;12.77;;;;;;;20.80;100.00;101909.84;10343411;28;20088;-71
2023/05/12 10:29:47;;;;;;;15.05;11.00;;;;;;;21.16;100.00;101909.34;10381878;28;20386;-71
2023/05/12 10:34:47;;;;;;;14.02;9.73;;;;;;;21.40;100.00;101919.69;10381213;28;20037;-71
2023/05/12 10:39:49;;;;;;;11.00;9.43;;;;;;;21.39;100.00;101915.22;10398958;28;20058;-71
2023/05/12 10:44:53;;;;;;;12.48;9.60;;;;;;;21.36;100.00;101902.66;10419000;28;20501;-71
2023/05/12 10:49:56;;;;;;;12.43;9.80;;;;;;;21.75;100.00;101902.34;10416712;28;20522;-71
2023/05/12 10:55:00;;;;;;;16.73;9.70;;;;;;;21.87;100.00;101895.41;10399206;28;20044;-71
2023/05/12 11:00:01;;;;;;;9.65;7.13;;;;;;;22.21;100.00;101897.91;10398147;28;20034;-71
2023/05/12 11:05:05;;;;;;;8.02;5.80;;;;;;;22.62;100.00;101891.53;10414114;28;20030;-72
2023/05/12 11:10:06;;;;;;;7.32;6.47;;;;;;;22.98;100.00;101882.34;10383987;28;20053;-73
2023/05/12 11:15:07;;;;;;;7.07;6.00;;;;;;;23.20;100.00;101878.00;10416890;28;20038;-71
2023/05/12 11:20:10;;;;;;;8.30;6.13;;;;;;;23.25;100.00;101878.69;10414480;28;20480;-72
2023/05/12 11:25:11;;;;;;;11.00;4.72;;;;;;;23.41;100.00;101876.34;10413912;28;20087;-71
2023/05/12 11:30:12;;;;;;;8.70;4.97;;;;;;;23.69;100.00;101877.09;10415597;28;20088;-71
2023/05/12 11:35:17;;;;;;;5.32;3.75;;;;;;;23.91;100.00;101873.44;10396222;28;20105;-71
2023/05/12 11:40:19;;;;;;;5.43;4.03;;;;;;;23.88;100.00;101865.66;10378644;28;20033;-70
2023/05/12 11:45:24;;;;;;;5.13;4.15;;;;;;;24.05;100.00;101861.31;10360710;28;20509;-71
2023/05/12 11:50:25;;;;;;;3.73;3.33;;;;;;;24.45;100.00;101852.88;10412212;28;20036;-71
2023/05/12 11:55:26;;;;;;;4.10;2.85;;;;;;;25.13;95.77;101859.03;10413422;28;20041;-71
2023/05/12 12:00:31;;;;;;;5.68;3.05;;;;;;;25.73;90.70;101846.13;10413662;28;20038;-71
2023/05/12 12:05:32;;;;;;;9.93;3.45;;;;;;;26.18;91.48;101866.28;10396839;28;20036;-71
2023/05/12 12:10:32;;;;;;;4.53;3.75;;;;;;;26.25;85.42;101851.66;10412162;28;20080;-71
2023/05/12 12:15:33;;;;;;;7.30;2.72;;;;;;;26.41;86.64;101865.22;10413212;28;20064;-72
2023/05/12 12:20:33;;;;;;;4.88;2.97;;;;;;;27.28;84.66;101856.25;10413774;28;20048;-72
2023/05/12 12:25:34;;;;;;;2.88;2.30;;;;;;;27.76;73.21;101809.53;10379375;28;20038;-72
2023/05/12 12:30:34;;;;;;;3.60;2.30;;;;;;;28.03;71.72;101830.75;10379150;28;20091;-72
2023/05/12 12:35:35;;;;;;;5.70;2.20;;;;;;;28.31;69.44;101836.56;10395816;28;20125;-72
2023/05/12 12:40:35;;;;;;;3.83;2.10;;;;;;;28.42;64.60;101819.91;10395152;28;20037;-73
2023/05/12 12:45:36;;;;;;;4.03;1.83;;;;;;;28.60;64.49;101823.38;10393147;28;20034;-73
2023/05/12 12:50:36;;;;;;;4.18;1.70;;;;;;;28.91;64.34;101830.44;10393860;28;20053;-73
2023/05/12 12:55:37;;;;;;;1.88;1.60;;;;;;;28.88;59.37;101808.47;10408995;28;20049;-74
2023/05/12 13:00:37;;;;;;;5.55;1.90;;;;;;;27.94;61.88;101833.66;10376928;28;20033;-74
2023/05/12 13:05:38;;;;;;;4.43;1.65;;;;;;;27.10;57.35;101821.59;10393492;28;20034;-74
2023/05/12 13:10:40;;;;;;;2.85;1.50;;;;;;;25.82;61.25;101830.03;10369457;28;20034;-74
2023/05/12 13:15:41;;;;;;;3.67;1.60;;;;;;;24.90;65.68;101838.63;10409513;28;20061;-73
2023/05/12 13:20:41;;;;;;;3.40;1.45;;;;;;;24.16;64.67;101820.47;10391996;28;20050;-73
2023/05/12 13:25:43;;;;;;;3.38;1.25;;;;;;;25.49;60.84;101822.09;10368060;28;20034;-74
2023/05/12 13:30:44;;;;;;;2.20;1.80;;;;;;;26.03;63.18;101830.16;10393819;28;20060;-74
2023/05/12 13:35:44;;;;;;;2.70;1.50;;;;;;;25.63;63.88;101827.53;10353036;28;20068;-74
2023/05/12 13:40:45;;;;;;;1.88;1.25;;;;;;;26.96;57.43;101771.03;10353644;28;20045;-72
2023/05/12 13:45:45;;;;;;;3.30;1.80;;;;;;;28.58;58.07;101800.25;10336978;28;20026;-71
2023/05/12 13:50:46;;;;;;;3.97;2.00;;;;;;;27.23;60.99;101814.06;10321096;28;20046;-74
2023/05/12 13:55:47;;;;;;;3.75;1.98;;;;;;;25.99;67.56;101850.91;10352677;28;20034;-71
2023/05/12 14:00:48;;;;;;;6.30;2.20;;;;;;;24.53;68.58;101832.41;10367618;28;20037;-71
2023/05/12 14:05:48;;;;;;;3.15;2.25;;;;;;;23.86;73.28;101855.91;10364199;28;20041;-72
2023/05/12 14:10:49;;;;;;;3.30;2.00;;;;;;;23.66;76.43;101863.66;10384778;28;20417;-72
2023/05/12 14:15:49;;;;;;;4.72;2.15;;;;;;;24.48;74.88;101860.69;10384173;28;20045;-73
2023/05/12 14:20:50;;;;;;;6.32;1.90;;;;;;;25.88;68.61;101839.09;10400862;28;20038;-73
2023/05/12 14:25:50;;;;;;;3.80;1.90;;;;;;;27.44;67.46;101837.50;10400082;28;20075;-73
2023/05/12 14:30:52;;;;;;;4.43;1.85;;;;;;;28.81;59.83;101811.09;10400092;28;20445;-73
2023/05/12 14:35:52;;;;;;;4.40;1.90;;;;;;;29.49;61.66;101822.47;10399717;28;20045;-73
2023/05/12 14:40:53;;;;;;;3.47;2.17;;;;;;;28.18;60.73;101820.75;10416876;28;20046;-77
2023/05/12 14:45:53;;;;;;;7.30;1.95;;;;;;;26.78;63.30;101844.59;10358558;28;20030;-69
2023/05/12 14:50:54;;;;;;;9.23;2.58;;;;;;;25.43;68.81;101857.28;10375592;28;20053;-71
2023/05/12 14:55:55;;;;;;;4.93;2.75;;;;;;;26.25;70.35;101860.13;10376134;28;20050;-72
2023/05/12 15:00:56;;;;;;;5.55;2.70;;;;;;;27.70;67.28;101859.03;10358289;28;20045;-72
2023/05/12 15:05:56;;;;;;;8.45;2.78;;;;;;;28.63;65.02;101848.19;10350368;28;20041;-72
2023/05/12 15:10:57;;;;;;;3.85;2.25;;;;;;;28.80;62.21;101846.28;10414899;28;20030;-69
2023/05/12 15:15:57;;;;;;;4.30;3.17;;;;;;;29.33;65.18;101856.47;10414783;28;20045;-70
2023/05/12 15:20:58;;;;;;;6.18;2.60;;;;;;;29.55;59.88;101840.06;10415087;28;20099;-70
2023/05/12 15:25:58;;;;;;;7.30;2.92;;;;;;;29.49;57.94;101836.66;10397844;28;20381;-67
2023/05/12 15:30:59;;;;;;;3.40;2.70;;;;;;;29.48;56.31;101837.84;10415526;28;20037;-70
2023/05/12 15:35:59;;;;;;;4.05;2.30;;;;;;;29.36;52.24;101813.19;10415648;28;20041;-69
2023/05/12 15:41:00;;;;;;;4.03;2.10;;;;;;;29.98;55.30;101830.75;10415433;28;20045;-68
2023/05/12 15:46:03;;;;;;;4.93;2.13;;;;;;;30.96;54.88;101837.66;10381904;28;20044;-72
2023/05/12 15:51:03;;;;;;;3.63;2.20;;;;;;;29.71;50.97;101761.50;10415402;28;20057;-71
2023/05/12 15:56:05;;;;;;;3.25;2.28;;;;;;;29.87;50.77;101821.13;10397198;28;20040;-70
2023/05/12 16:01:05;;;;;;;2.85;2.35;;;;;;;29.90;52.15;101826.06;10413232;28;20038;-70
2023/05/12 16:06:06;;;;;;;3.42;2.45;;;;;;;29.12;50.37;101831.09;10395225;28;20061;-68
2023/05/12 16:11:06;;;;;;;4.68;2.55;;;;;;;28.20;52.11;101841.03;10396472;28;20045;-70
2023/05/12 16:16:07;;;;;;;4.47;2.10;;;;;;;28.46;53.49;101837.03;10412661;28;20509;-70
2023/05/12 16:21:08;;;;;;;3.80;2.20;;;;;;;28.82;54.03;101838.25;10362776;28;20045;-70
2023/05/12 16:26:08;;;;;;;6.03;2.47;;;;;;;28.41;54.06;101845.78;10394890;28;20053;-70
2023/05/12 16:31:09;;;;;;;11.13;2.78;;;;;;;26.10;59.74;101869.94;10394614;28;20060;-68
2023/05/12 16:36:09;;;;;;;5.95;4.22;;;;;;;24.09;69.33;101893.25;10412739;28;20038;-69
2023/05/12 16:41:10;;;;;;;5.35;4.05;;;;;;;23.30;76.36;101917.91;10394506;28;20042;-69
2023/05/12 16:46:10;;;;;;;8.43;4.03;;;;;;;22.71;80.50;101906.50;10412454;28;20045;-69
2023/05/12 16:51:11;;;;;;;5.60;3.15;;;;;;;23.44;72.23;101889.78;10362187;28;20038;-67
2023/05/12 16:56:11;;;;;;;5.10;2.80;;;;;;;24.90;69.60;101892.97;10377996;28;20121;-70
2023/05/12 17:01:12;;;;;;;4.53;2.70;;;;;;;23.59;70.24;101893.38;10394302;28;20041;-68
2023/05/12 17:06:12;;;;;;;6.30;3.40;;;;;;;23.35;71.20;101898.13;10412426;28;20044;-70
2023/05/12 17:11:13;;;;;;;5.35;3.05;;;;;;;22.94;69.31;101903.78;10394066;28;20042;-69
2023/05/12 17:16:13;;;;;;;3.83;3.03;;;;;;;21.79;72.83;101907.31;10410569;28;20025;-71
2023/05/12 17:21:14;;;;;;;5.60;2.70;;;;;;;21.01;76.21;101917.97;10376499;28;20064;-71
2023/05/12 17:26:15;;;;;;;4.78;2.42;;;;;;;20.72;73.56;101914.13;10393279;28;20045;-70
2023/05/12 17:31:15;;;;;;;5.70;3.03;;;;;;;20.68;76.21;101929.00;10411072;28;20434;-68
2023/05/12 17:36:17;;;;;;;4.60;2.90;;;;;;;20.48;77.08;101928.06;10394474;28;20045;-68
2023/05/12 17:41:18;;;;;;;3.92;2.30;;;;;;;20.05;75.00;101938.25;10399644;28;20045;-70
2023/05/12 17:46:18;;;;;;;5.03;2.20;;;;;;;19.69;75.84;101938.50;10415609;28;20103;-67
2023/05/12 17:51:19;;;;;;;7.82;2.08;;;;;;;19.45;75.79;101947.63;10418649;28;20126;-75
2023/05/12 17:56:19;;;;;;;6.07;1.83;;;;;;;19.32;78.30;101962.19;10419839;28;20037;-71
2023/05/12 18:01:20;;;;;;;5.28;2.33;;;;;;;19.07;79.47;101963.16;10400471;28;20037;-76
2023/05/12 18:06:20;;;;;;;3.00;1.70;;;;;;;18.81;77.50;101959.59;10384821;28;20034;-70
2023/05/12 18:11:21;;;;;;;3.20;2.13;;;;;;;18.60;78.05;101953.22;10400005;28;20041;-70
2023/05/12 18:16:22;;;;;;;2.58;1.65;;;;;;;18.43;79.77;101975.84;10384017;28;20033;-73
2023/05/12 18:21:22;;;;;;;6.07;2.00;;;;;;;18.21;77.38;101973.34;10367739;28;20041;-71
2023/05/12 18:26:23;;;;;;;4.63;1.70;;;;;;;17.92;79.66;101971.97;10366324;28;20046;-70
2023/05/12 18:31:25;;;;;;;4.25;1.80;;;;;;;17.87;78.18;101979.47;10355616;28;20037;-70
2023/05/12 18:36:26;;;;;;;3.22;1.60;;;;;;;17.61;76.97;101971.06;10367609;28;20034;-70
2023/05/12 18:41:26;;;;;;;5.40;1.88;;;;;;;17.60;80.18;101996.38;10365776;28;20041;-71
2023/05/12 18:46:27;;;;;;;4.78;1.80;;;;;;;17.40;80.15;101991.56;10398686;28;20037;-70
2023/05/12 18:51:27;;;;;;;4.82;1.85;;;;;;;17.19;78.70;101996.22;10414894;28;20112;-68
2023/05/12 18:56:28;;;;;;;3.00;1.75;;;;;;;17.00;83.98;102016.16;10416701;28;20103;-69
2023/05/12 19:01:28;;;;;;;5.45;1.88;;;;;;;16.75;81.89;102014.88;10397524;28;20037;-72
2023/05/12 19:06:29;;;;;;;6.10;2.03;;;;;;;16.58;80.97;102010.56;10383327;28;20038;-71
2023/05/12 19:11:30;;;;;;;5.57;1.98;;;;;;;16.50;80.18;102025.84;10416459;28;20046;-68
2023/05/12 19:16:30;;;;;;;4.43;2.25;;;;;;;16.30;83.28;102024.53;10358413;28;20056;-70
2023/05/12 19:21:32;;;;;;;7.93;2.08;;;;;;;16.28;81.21;102040.66;10362810;28;20552;-70
2023/05/12 19:26:32;;;;;;;6.13;2.25;;;;;;;16.08;85.09;102044.09;10353932;28;20096;-69
2023/05/12 19:31:33;;;;;;;4.57;1.95;;;;;;;15.88;86.54;102055.81;10357251;28;20034;-70
2023/05/12 19:36:34;;;;;;;3.22;2.17;;;;;;;15.67;91.91;102070.56;10373572;28;20042;-69
2023/05/12 19:41:39;;;;;;;6.30;2.92;;;;;;;15.44;93.26;102066.09;10355849;28;20073;-70
2023/05/12 19:46:40;;;;;;;4.38;2.20;;;;;;;15.34;94.57;102064.88;10365641;28;20067;-70
2023/05/12 19:51:40;;;;;;;9.45;3.30;;;;;;;15.21;94.75;102058.84;10394598;28;20441;-70
2023/05/12 19:56:41;;;;;;;7.10;2.65;;;;;;;15.12;96.43;102064.84;10393302;28;20037;-70
2023/05/12 20:01:41;;;;;;;6.15;2.63;;;;;;;15.03;97.22;102060.84;10409750;28;20064;-69
2023/05/12 20:06:42;;;;;;;8.60;2.95;;;;;;;14.92;97.57;102076.50;10411158;28;20041;-70
2023/05/12 20:11:42;;;;;;;5.15;3.00;;;;;;;14.80;100.00;102083.22;10405023;28;20123;-70
2023/05/12 20:16:43;;;;;;;7.18;3.22;;;;;;;14.67;100.00;102079.69;10379360;28;20041;-70
2023/05/12 20:21:43;;;;;;;3.80;2.92;;;;;;;14.57;100.00;102087.84;10412671;28;20030;-70
2023/05/12 20:26:44;;;;;;;4.85;3.03;;;;;;;14.44;100.00;102085.38;10392140;28;20048;-70
2023/05/12 20:31:44;;;;;;;6.55;3.08;;;;;;;14.30;100.00;102082.94;10365693;28;20079;-70
2023/05/12 20:36:45;;;;;;;8.63;3.13;;;;;;;14.21;100.00;102087.19;10412952;28;20030;-69
2023/05/12 20:41:45;;;;;;;4.20;2.92;;;;;;;14.02;100.00;102082.97;10393187;28;20038;-70
2023/05/12 20:46:46;;;;;;;7.13;3.55;;;;;;;14.08;100.00;102109.66;10411871;28;20374;-71
2023/05/12 20:51:47;;;;;;;10.85;3.72;;;;;;;13.97;100.00;102107.78;10393936;28;20029;-70
2023/05/12 20:56:47;;;;;;;6.60;3.35;;;;;;;13.83;100.00;102108.06;10412076;28;20045;-69
2023/05/12 21:01:48;;;;;;;9.18;4.22;;;;;;;13.68;100.00;102110.50;10395081;28;20037;-67
2023/05/12 21:06:48;;;;;;;7.57;4.13;;;;;;;13.52;100.00;102093.59;10412124;28;20037;-70
2023/05/12 21:11:49;;;;;;;8.00;3.72;;;;;;;13.53;100.00;102120.16;10411189;28;20045;-70
2023/05/12 21:16:49;;;;;;;6.07;4.10;;;;;;;13.40;100.00;102087.25;10375674;28;20034;-69
2023/05/12 21:21:50;;;;;;;6.30;3.88;;;;;;;13.47;100.00;102107.31;10411163;28;20623;-70
2023/05/12 21:26:50;;;;;;;6.40;3.55;;;;;;;13.41;100.00;102105.53;10376645;28;20050;-70
2023/05/12 21:31:51;;;;;;;4.88;4.15;;;;;;;13.33;100.00;102108.66;10410785;28;20157;-70
2023/05/12 21:36:51;;;;;;;6.05;4.45;;;;;;;13.29;100.00;102118.53;10377755;28;20108;-70
2023/05/12 21:41:52;;;;;;;11.00;4.63;;;;;;;13.15;100.00;102122.59;10366585;28;20048;-69
2023/05/12 21:46:52;;;;;;;7.28;4.70;;;;;;;13.01;100.00;102120.09;10360072;28;20046;-70
2023/05/12 21:51:54;;;;;;;7.97;4.90;;;;;;;12.92;100.00;102127.91;10349658;28;20045;-70
2023/05/12 21:56:54;;;;;;;9.85;5.15;;;;;;;12.85;100.00;102131.84;10391280;28;20044;-69
2023/05/12 22:01:55;;;;;;;10.10;4.75;;;;;;;12.79;100.00;102127.28;10393206;28;20436;-70
2023/05/12 22:06:55;;;;;;;18.42;5.32;;;;;;;12.79;100.00;102138.31;10375589;28;20041;-69
2023/05/12 22:11:56;;;;;;;12.48;4.70;;;;;;;12.67;100.00;102144.69;10392779;28;20053;-70
2023/05/12 22:16:56;;;;;;;9.65;5.60;;;;;;;12.50;100.00;102138.16;10374561;28;20037;-70
2023/05/12 22:21:57;;;;;;;9.55;5.57;;;;;;;12.44;100.00;102145.47;10375651;28;20489;-69
2023/05/12 22:26:57;;;;;;;8.68;5.97;;;;;;;12.38;100.00;102140.03;10396720;28;20124;-69
2023/05/12 22:31:58;;;;;;;7.70;4.85;;;;;;;12.34;100.00;102155.38;10386876;28;20033;-70